Aérodrome :
LOGIN :

S'inscrire | Disclaimer

   EN    FR    IT 

 










Légende :    VFR   VFR Marginal   IFR   IFR Intensif   IFR Très Intensif
Visi : 
Plafond : 
>= 8 km
>= 3000ft
5 à 8 km
1000 à 3000 ft
1500m à 5 km
500 à 1000 ft
800 à 1500m
200 à 500 ft
< 800m
< 200 ft
Symboles :   Orages  Brouillard  Fortes neiges  Fortes précipitations  Vent > 20 kt
SIGMETs :   Divers  Orages  Givrage  Turbulence  Onde Orograph.  Cendres Volcan.






- Altitude de l'aérodrome : 1375 ft
- Code IATA : SCV


LRSV - Suceava Stefan cel Mare

DERNIER METAR :
  • 210800Z 11014KT 2000 -RA OVC003 02/02 Q1025 R16/29//95

METARs EXPIRÉS :
  • 210730Z 11014KT 2000 -RA BR OVC003 03/03 Q1025 R16/29//95
  • 210700Z 11014KT 2000 -RA BR OVC003 03/03 Q1025 R16/29//95
  • 210630Z 11014KT 1000 R34/P2000U -RA BR VV002 03/02 Q1025 R16/29//95
  • 210600Z 11015KT 0400 R34/1400D -RA FG VV002 03/02 Q1024 R16/29//95

TAF TAF LRSV
Valide du 21 à 09h jusqu'au 21 à 18h UTC


210800Z 2109/2118 12014KT 3000 -RADZ BR BKN003 OVC020



MET'MAP, la Météo Aéronautique d'un coup d'oeil ! - Copyright ORBIFLY Décembre 2007 - Disclaimer

ORBIFLY MET'MAP TEAM :

Programmation & Développement : Alexandra Zaïnal
Conception & Développement : Baudouin d'Aumeries
Co-Programmation & Développement : Marc-Olivier Méhu
Soutien technique & logistique : Manuel Goepfert

Contact : metmap@orbifly.com




SOURCES & CREDITS :

   NOAA